PDT,Max TemperatureF,Mean TemperatureF,Min TemperatureF,Max Dew PointF,MeanDew PointF,Min DewpointF,Max Humidity, Mean Humidity, Min Humidity, Max Sea Level PressureIn, Mean Sea Level PressureIn, Min Sea Level PressureIn, Max VisibilityMiles, Mean VisibilityMiles, Min VisibilityMiles, Max Wind SpeedMPH, Mean Wind SpeedMPH, Max Gust SpeedMPH,PrecipitationIn, CloudCover, Events, WindDirDegrees
2013-9-1,91,77,63,58,52,46,67,49,23,29.90,29.86,29.83,10,10,10,14,8,21,0.00,2,,213
2013-9-2,89,77,66,58,57,52,70,54,29,29.92,29.88,29.84,10,10,10,13,7,20,0.00,3,,209
2013-9-3,87,70,55,58,52,46,87,54,26,29.96,29.91,29.88,10,10,10,14,5,23,0.00,1,,206
2013-9-4,88,72,57,55,53,50,84,56,28,30.01,29.94,29.88,10,10,10,14,5,21,0.00,0,,210
2013-9-5,89,74,60,55,52,45,78,53,23,29.98,29.93,29.89,10,10,10,14,7,22,0.00,0,,210
2013-9-6,93,74,54,53,46,38,86,44,15,29.98,29.91,29.82,10,10,10,12,3,17,0.00,0,,339
2013-9-7,98,76,54,46,43,33,69,37,11,29.89,29.83,29.77,10,10,10,8,1,,0.00,0,,172
2013-9-8,100,78,57,49,45,40,62,36,13,29.86,29.79,29.71,10,10,10,7,1,,0.00,0,,210
2013-9-9,102,80,59,52,48,41,64,35,16,29.79,29.71,29.63,10,10,10,10,2,,0.00,0,,213
2013-9-10,88,72,61,58,55,52,72,54,37,29.80,29.73,29.65,10,10,10,16,7,23,0.00,0,,216
2013-9-11,84,68,54,57,55,50,86,63,41,29.96,29.90,29.81,10,10,10,13,5,20,0.00,0,,212
2013-9-12,90,74,57,60,57,54,89,63,35,29.97,29.89,29.81,10,10,10,10,3,,0.00,0,,220
2013-9-13,91,75,59,58,55,52,87,57,30,29.87,29.78,29.68,10,10,10,12,5,18,0.00,0,,217
2013-9-14,89,72,57,56,54,52,87,58,34,29.78,29.71,29.65,10,10,10,12,8,17,0.00,0,,224
2013-9-15,89,72,57,55,52,50,81,55,28,29.81,29.76,29.69,10,10,10,17,9,24,0.00,0,,211
2013-9-16,88,70,54,56,54,50,93,59,30,29.88,29.81,29.73,10,10,10,13,4,18,0.00,0,,207
2013-9-17,82,70,57,53,50,46,81,54,29,29.86,29.80,29.75,10,10,10,15,10,23,0.00,0,,205
2013-9-18,89,73,57,50,40,31,72,34,12,29.91,29.85,29.79,10,10,10,16,5,28,0.00,0,,339
2013-9-19,91,70,48,44,39,36,69,37,15,29.86,29.79,29.72,10,10,10,9,1,,0.00,0,,225
2013-9-20,82,66,51,59,49,37,80,55,27,29.83,29.78,29.72,10,10,10,18,7,28,0.00,1,,208
2013-9-21,66,62,55,61,57,52,100,87,60,29.89,29.83,29.80,10,8,2,10,7,17,0.22,5,Rain,204
2013-9-22,75,62,50,54,52,49,100,74,45,30.01,29.96,29.91,10,10,10,8,2,,0.00,1,,154
2013-9-23,82,67,52,57,54,51,97,66,33,30.03,29.97,29.91,10,10,10,9,1,,0.00,0,,192
2013-9-24,82,70,60,57,50,45,87,55,29,29.95,29.89,29.83,10,10,10,17,5,26,0.00,0,,231
2013-9-25,73,64,54,46,42,39,66,47,30,29.93,29.87,29.78,10,10,10,15,9,21,0.01,1,,309
2013-9-26,77,66,57,38,32,25,46,30,16,29.99,29.90,29.84,10,10,10,20,15,34,0.01,0,,346
2013-9-27,80,68,54,38,33,29,55,29,16,30.10,30.05,30.00,10,10,10,13,8,23,0.00,0,,343
2013-9-28,84,64,46,53,40,26,79,47,13,30.10,30.04,29.98,10,10,10,10,2,,0.00,0,,185
2013-9-29,77,65,55,59,56,51,87,72,53,30.10,30.06,30.03,10,10,10,13,6,20,0.00,3,,200
2013-9-30,75,68,60,63,60,55,100,81,57,30.07,30.03,29.94,10,10,2,20,7,23,0.00,6,Rain,196